createdAt,value
2019-05-17T00:00:32.829Z,12.90
2019-05-17T00:02:59.867Z,12.81
2019-05-17T00:05:26.937Z,12.80
2019-05-17T00:07:53.951Z,12.83
2019-05-17T00:10:20.994Z,12.56
2019-05-17T00:12:48.066Z,12.58
2019-05-17T00:15:16.914Z,12.62
2019-05-17T00:17:46.668Z,12.64
2019-05-17T00:20:13.365Z,12.68
2019-05-17T00:22:40.423Z,12.55
2019-05-17T00:25:07.831Z,12.63
2019-05-17T00:27:36.736Z,12.59
2019-05-17T00:30:06.484Z,12.65
2019-05-17T00:32:33.437Z,12.56
2019-05-17T00:35:00.491Z,12.49
2019-05-17T00:37:27.595Z,12.33
2019-05-17T00:39:56.666Z,12.31
2019-05-17T00:42:23.572Z,12.27
2019-05-17T00:44:50.655Z,12.03
2019-05-17T00:47:17.675Z,12.08
2019-05-17T00:49:46.465Z,12.22
2019-05-17T00:52:13.666Z,11.95
2019-05-17T00:54:40.703Z,11.95
2019-05-17T00:57:07.729Z,11.94
2019-05-17T00:59:36.758Z,11.98
2019-05-17T01:02:03.722Z,11.93
2019-05-17T01:04:30.798Z,11.69
2019-05-17T01:06:57.872Z,11.83
2019-05-17T01:09:27.148Z,11.81
2019-05-17T01:11:53.840Z,11.81
2019-05-17T01:14:20.904Z,11.79
2019-05-17T01:16:47.942Z,11.86
2019-05-17T01:19:16.460Z,11.80
2019-05-17T01:21:43.665Z,11.64
2019-05-17T01:24:10.694Z,11.61
2019-05-17T01:26:37.742Z,11.74
2019-05-17T01:29:06.693Z,11.67
2019-05-17T01:31:33.721Z,11.85
2019-05-17T01:34:00.769Z,11.63
2019-05-17T01:36:27.857Z,11.66
2019-05-17T01:38:57.423Z,11.42
2019-05-17T01:41:23.803Z,11.56
2019-05-17T01:43:50.860Z,11.53
2019-05-17T01:46:17.884Z,11.55
2019-05-17T01:48:46.951Z,11.54
2019-05-17T01:51:13.867Z,11.45
2019-05-17T01:53:40.893Z,11.39
2019-05-17T01:56:07.933Z,11.36
2019-05-17T01:58:36.548Z,11.42
2019-05-17T02:01:03.718Z,11.51
2019-05-17T02:10:11.854Z,11.48
2019-05-17T02:12:38.873Z,11.28
2019-05-17T02:15:07.311Z,11.28
2019-05-17T02:17:34.357Z,11.42
2019-05-17T02:20:01.871Z,11.42
2019-05-17T02:22:28.890Z,11.39
2019-05-17T02:24:56.771Z,11.38
2019-05-17T02:27:28.446Z,11.36
2019-05-17T02:29:54.033Z,11.31
2019-05-17T02:32:23.491Z,11.36
2019-05-17T02:34:52.966Z,11.21
2019-05-17T02:37:22.924Z,11.26
2019-05-17T02:39:58.321Z,11.31
2019-05-17T02:42:17.607Z,11.32
2019-05-17T02:44:44.622Z,11.42
2019-05-17T02:47:13.283Z,11.50
2019-05-17T02:49:42.442Z,11.31
2019-05-17T02:52:12.163Z,11.48
2019-05-17T02:54:38.415Z,11.45
2019-05-17T02:57:05.547Z,11.46
2019-05-17T02:59:33.274Z,11.61
2019-05-17T03:02:03.208Z,11.62
2019-05-17T03:04:32.505Z,11.73
2019-05-17T03:06:58.309Z,11.57
2019-05-17T03:09:25.385Z,11.52
2019-05-17T03:11:56.664Z,11.55
2019-05-17T03:14:22.943Z,11.44
2019-05-17T03:16:53.383Z,11.62
2019-05-17T03:19:19.260Z,11.69
2019-05-17T03:21:46.306Z,11.70
2019-05-17T03:24:13.943Z,11.44
2019-05-17T03:26:43.064Z,11.59
2019-05-17T03:29:13.374Z,11.58
2019-05-17T03:31:44.685Z,11.53
2019-05-17T03:34:08.743Z,11.44
2019-05-17T03:36:36.862Z,11.53
2019-05-17T03:39:04.964Z,11.55
2019-05-17T03:41:34.109Z,11.49
2019-05-17T03:44:03.278Z,11.40
2019-05-17T03:46:33.188Z,11.63
2019-05-17T03:48:58.900Z,11.33
2019-05-17T03:51:26.017Z,11.32
2019-05-17T03:53:53.310Z,11.42
2019-05-17T03:56:22.396Z,11.19
2019-05-17T03:58:52.833Z,11.21
2019-05-17T04:01:18.308Z,11.19
2019-05-17T04:03:45.338Z,11.09
2019-05-17T04:06:13.359Z,10.96
2019-05-17T04:08:42.483Z,10.98
2019-05-17T04:11:25.281Z,10.97
2019-05-17T04:13:38.512Z,11.04
2019-05-17T04:16:09.012Z,10.98
2019-05-17T04:18:34.495Z,11.00
2019-05-17T04:21:03.451Z,11.01
2019-05-17T04:23:33.751Z,10.88
2019-05-17T04:25:59.491Z,10.93
2019-05-17T04:28:26.528Z,10.99
2019-05-17T04:30:53.576Z,10.96
2019-05-17T04:33:23.287Z,10.82
2019-05-17T04:35:49.554Z,10.88
2019-05-17T04:38:16.604Z,10.96
2019-05-17T04:40:43.646Z,11.03
2019-05-17T04:43:13.322Z,11.20
2019-05-17T04:45:42.368Z,11.13
2019-05-17T04:48:08.569Z,11.14
2019-05-17T04:50:35.625Z,11.03
2019-05-17T04:53:03.136Z,11.14
2019-05-17T04:55:33.805Z,10.99
2019-05-17T04:57:59.346Z,11.03
2019-05-17T05:00:26.399Z,11.15
2019-05-17T05:02:53.456Z,11.11
2019-05-17T05:05:22.717Z,11.13
2019-05-17T05:07:49.451Z,11.11
2019-05-17T05:10:16.620Z,11.30
2019-05-17T05:12:44.244Z,11.26
2019-05-17T05:15:13.850Z,11.22
2019-05-17T05:17:42.669Z,11.29
2019-05-17T05:20:13.131Z,11.17
2019-05-17T05:22:42.292Z,11.14
2019-05-17T05:25:08.528Z,11.13
2019-05-17T05:27:35.548Z,11.22
2019-05-17T05:30:03.186Z,11.11
2019-05-17T05:32:31.560Z,11.10
2019-05-17T05:34:58.799Z,11.09
2019-05-17T05:37:26.122Z,11.14
2019-05-17T05:40:07.456Z,11.19
2019-05-17T05:42:34.504Z,11.23
2019-05-17T05:45:03.109Z,11.19
2019-05-17T05:47:32.344Z,11.31
2019-05-17T05:50:01.726Z,11.33
2019-05-17T05:52:28.746Z,11.35
2019-05-17T05:54:55.841Z,11.44
2019-05-17T05:57:22.860Z,11.28
2019-05-17T05:59:51.831Z,11.31
2019-05-17T06:02:21.588Z,11.32
2019-05-17T06:04:47.899Z,11.41
2019-05-17T06:07:14.953Z,11.33
2019-05-17T06:09:42.452Z,11.44
2019-05-17T06:12:22.606Z,11.30
2019-05-17T06:14:38.657Z,11.32
2019-05-17T06:17:05.731Z,11.27
2019-05-17T06:19:32.862Z,11.40
2019-05-17T06:22:02.518Z,11.51
2019-05-17T06:24:28.940Z,11.44
2019-05-17T06:26:56.005Z,11.60
2019-05-17T06:29:23.070Z,11.55
2019-05-17T06:31:51.880Z,11.41
2019-05-17T06:34:19.405Z,11.33
2019-05-17T06:36:46.463Z,11.44
2019-05-17T06:39:13.520Z,11.49
2019-05-17T06:41:41.966Z,11.59
2019-05-17T06:44:09.299Z,11.66
2019-05-17T06:46:36.330Z,11.63
2019-05-17T06:49:03.369Z,11.60
2019-05-17T06:51:31.625Z,11.57
2019-05-17T06:53:58.856Z,11.69
2019-05-17T06:56:25.883Z,11.53
2019-05-17T06:58:52.929Z,11.55
2019-05-17T07:01:19.962Z,11.67
2019-05-17T07:03:46.998Z,11.78
2019-05-17T07:06:16.394Z,11.86
2019-05-17T07:08:43.442Z,11.86
2019-05-17T07:11:10.435Z,11.94
2019-05-17T07:13:39.430Z,11.83
2019-05-17T07:16:06.451Z,11.75
2019-05-17T07:18:33.575Z,11.88
2019-05-17T07:21:03.363Z,11.87
2019-05-17T07:23:30.274Z,11.73
2019-05-17T07:25:59.478Z,11.78
2019-05-17T07:28:26.444Z,11.72
2019-05-17T07:30:53.495Z,11.75
2019-05-17T07:33:20.530Z,11.81
2019-05-17T07:35:49.970Z,11.85
2019-05-17T07:38:16.568Z,11.81
2019-05-17T07:40:43.582Z,11.79
2019-05-17T07:43:14.537Z,11.83
2019-05-17T07:45:40.438Z,11.97
2019-05-17T07:48:09.767Z,12.00
2019-05-17T07:50:36.728Z,12.15
2019-05-17T07:53:03.795Z,11.95
2019-05-17T07:55:30.840Z,11.95
2019-05-17T07:58:00.106Z,12.12
2019-05-17T08:00:26.853Z,12.24
2019-05-17T08:02:53.881Z,12.20
2019-05-17T08:05:23.538Z,12.40
2019-05-17T08:07:50.627Z,12.30
2019-05-17T08:10:20.381Z,12.37
2019-05-17T08:12:49.723Z,12.27
2019-05-17T08:15:16.309Z,12.32
2019-05-17T08:17:43.445Z,12.29
2019-05-17T08:20:10.793Z,12.29
2019-05-17T08:22:39.824Z,12.30
2019-05-17T08:25:09.882Z,12.54
2019-05-17T08:27:36.693Z,12.44
2019-05-17T08:30:04.304Z,12.36
2019-05-17T08:32:31.736Z,12.39
2019-05-17T08:35:00.322Z,12.29
2019-05-17T08:37:30.417Z,12.36
2019-05-17T08:39:59.892Z,12.39
2019-05-17T08:42:26.649Z,12.50
2019-05-17T08:44:53.723Z,12.43
2019-05-17T08:47:21.087Z,12.34
2019-05-17T08:49:49.677Z,12.36
2019-05-17T08:52:16.934Z,12.48
2019-05-17T08:54:43.996Z,12.55
2019-05-17T08:57:11.107Z,12.63
2019-05-17T08:59:40.462Z,12.76
2019-05-17T09:02:07.122Z,12.79
2019-05-17T09:04:34.216Z,12.75
2019-05-17T09:07:03.198Z,12.89
2019-05-17T09:09:31.463Z,13.04
2019-05-17T09:11:59.625Z,13.06
2019-05-17T09:14:26.750Z,12.94
2019-05-17T09:16:53.772Z,13.15
2019-05-17T09:19:20.905Z,13.12
2019-05-17T09:21:50.351Z,13.27
2019-05-17T09:24:19.361Z,13.24
2019-05-17T09:26:46.287Z,13.22
2019-05-17T09:29:13.326Z,12.99
2019-05-17T09:31:40.575Z,13.03
2019-05-17T09:34:09.652Z,12.95
2019-05-17T09:36:36.751Z,13.06
2019-05-17T09:39:05.700Z,12.92
2019-05-17T09:41:32.764Z,12.80
2019-05-17T09:44:11.613Z,12.84
2019-05-17T09:46:30.246Z,12.68
2019-05-17T09:48:57.686Z,12.75
2019-05-17T09:51:24.728Z,12.78
2019-05-17T09:53:51.804Z,12.75
2019-05-17T09:56:20.702Z,12.76
2019-05-17T09:58:49.528Z,12.84
2019-05-17T10:01:16.817Z,13.02
2019-05-17T10:03:43.916Z,13.14
2019-05-17T10:06:11.001Z,13.32
2019-05-17T10:08:39.361Z,13.33
2019-05-17T10:11:09.670Z,13.58
2019-05-17T10:13:35.688Z,13.48
2019-05-17T10:16:02.775Z,13.49
2019-05-17T10:18:29.834Z,13.66
2019-05-17T10:20:56.890Z,13.54
2019-05-17T10:23:23.963Z,13.56
2019-05-17T10:25:51.043Z,13.60
2019-05-17T10:28:20.335Z,13.64
2019-05-17T10:30:47.060Z,13.62
2019-05-17T10:33:14.072Z,13.59
2019-05-17T10:35:41.183Z,13.53
2019-05-17T10:38:10.279Z,13.68
2019-05-17T10:40:37.255Z,13.67
2019-05-17T10:43:04.304Z,13.68
2019-05-17T10:45:31.574Z,13.85
2019-05-17T10:48:00.645Z,13.66
2019-05-17T10:50:29.615Z,13.79
2019-05-17T10:52:56.549Z,13.70
2019-05-17T10:55:23.563Z,13.74
2019-05-17T10:57:50.596Z,13.64
2019-05-17T11:00:19.731Z,13.83
2019-05-17T11:02:46.870Z,13.69
2019-05-17T11:05:13.978Z,13.81
2019-05-17T11:07:41.013Z,13.80
2019-05-17T11:10:11.687Z,13.94
2019-05-17T11:12:37.512Z,13.97
2019-05-17T11:15:11.159Z,14.07
2019-05-17T11:17:33.799Z,14.01
2019-05-17T11:20:00.924Z,14.07
2019-05-17T11:22:28.093Z,14.04
2019-05-17T11:24:55.135Z,13.94
2019-05-17T11:27:22.143Z,14.02
2019-05-17T11:29:49.175Z,13.98
2019-05-17T11:32:16.356Z,13.96
2019-05-17T11:34:43.495Z,13.78
2019-05-17T11:37:10.547Z,13.76
2019-05-17T11:39:37.582Z,13.75
2019-05-17T11:42:04.630Z,13.62
2019-05-17T11:44:31.698Z,13.55
2019-05-17T11:46:58.807Z,13.72
2019-05-17T11:49:25.825Z,13.68
2019-05-17T11:51:52.873Z,13.54
2019-05-17T11:54:19.895Z,13.78
2019-05-17T11:56:46.928Z,13.84
2019-05-17T11:59:14.083Z,13.90
2019-05-17T12:01:41.195Z,14.10
2019-05-17T12:04:08.299Z,14.17
2019-05-17T12:06:35.350Z,14.36
2019-05-17T12:09:02.535Z,14.36
2019-05-17T12:11:29.589Z,14.32
2019-05-17T12:13:56.657Z,14.40
2019-05-17T12:16:23.790Z,14.46
2019-05-17T12:18:53.095Z,14.60
2019-05-17T12:21:20.192Z,14.60
2019-05-17T12:23:47.274Z,14.45
2019-05-17T12:26:14.319Z,14.67
2019-05-17T12:28:41.348Z,14.77
2019-05-17T12:31:08.407Z,14.86
2019-05-17T12:33:35.435Z,14.84
2019-05-17T12:36:03.386Z,14.94
2019-05-17T12:38:30.505Z,15.08
2019-05-17T12:40:57.559Z,15.14
2019-05-17T12:43:24.602Z,15.17
2019-05-17T12:46:00.289Z,14.87
2019-05-17T12:48:21.035Z,14.87
2019-05-17T12:50:48.169Z,14.93
2019-05-17T12:53:15.198Z,15.01
2019-05-17T12:55:42.240Z,15.13
2019-05-17T12:58:09.316Z,15.07
2019-05-17T13:00:36.358Z,15.14
2019-05-17T13:03:03.403Z,15.30
2019-05-17T13:05:33.308Z,15.40
2019-05-17T13:08:00.383Z,15.54
2019-05-17T13:10:27.426Z,15.50
2019-05-17T13:12:54.493Z,15.52
2019-05-17T13:15:21.575Z,15.43
2019-05-17T13:17:53.419Z,15.51
2019-05-17T13:20:21.416Z,15.53
2019-05-17T13:22:48.575Z,15.56
2019-05-17T13:25:15.775Z,15.71
2019-05-17T13:27:42.824Z,15.50
2019-05-17T13:30:10.396Z,15.45
2019-05-17T13:32:37.484Z,15.65
2019-05-17T13:35:04.971Z,15.48
2019-05-17T13:37:32.174Z,15.48
2019-05-17T13:39:59.244Z,15.59
2019-05-17T13:42:29.139Z,15.70
2019-05-17T13:44:56.224Z,15.58
2019-05-17T13:47:23.377Z,15.74
2019-05-17T13:49:50.428Z,15.56
2019-05-17T13:52:17.488Z,15.47
2019-05-17T13:54:44.557Z,15.55
2019-05-17T13:57:13.578Z,15.70
2019-05-17T13:59:40.559Z,15.75
2019-05-17T14:02:07.733Z,15.85
2019-05-17T14:04:34.797Z,15.79
2019-05-17T14:07:01.849Z,15.83
2019-05-17T14:09:28.984Z,15.82
2019-05-17T14:11:55.996Z,15.85
2019-05-17T14:14:23.103Z,15.79
2019-05-17T14:16:50.168Z,15.75
2019-05-17T14:19:17.209Z,15.89
2019-05-17T14:21:44.272Z,15.77
2019-05-17T14:24:11.369Z,15.91
2019-05-17T14:26:38.418Z,15.83
2019-05-17T14:29:05.453Z,15.85
2019-05-17T14:31:32.626Z,15.87
2019-05-17T14:33:59.632Z,15.84
2019-05-17T14:36:26.700Z,15.69
2019-05-17T14:38:53.715Z,15.67
2019-05-17T14:41:20.728Z,15.67
2019-05-17T14:43:47.779Z,15.61
2019-05-17T14:46:14.821Z,15.58
2019-05-17T14:48:41.864Z,15.82
2019-05-17T14:51:08.913Z,15.70
2019-05-17T14:53:35.926Z,15.62
2019-05-17T14:56:02.953Z,15.73
2019-05-17T14:58:30.018Z,15.69
2019-05-17T15:00:57.057Z,15.68
2019-05-17T15:03:24.446Z,15.59
2019-05-17T15:05:51.509Z,15.65
2019-05-17T15:08:18.543Z,15.59
2019-05-17T15:10:45.598Z,15.53
2019-05-17T15:13:13.653Z,15.60
2019-05-17T15:15:40.687Z,15.46
2019-05-17T15:18:09.688Z,15.57
2019-05-17T15:20:36.714Z,15.55
2019-05-17T15:23:03.943Z,15.58
2019-05-17T15:25:31.047Z,15.49
2019-05-17T15:27:58.101Z,15.57
2019-05-17T15:30:25.186Z,15.73
2019-05-17T15:32:52.166Z,15.78
2019-05-17T15:35:19.290Z,15.67
2019-05-17T15:37:46.386Z,15.82
2019-05-17T15:40:13.542Z,15.66
2019-05-17T15:42:44.816Z,15.47
2019-05-17T15:45:10.011Z,15.47
2019-05-17T15:47:37.245Z,15.46
2019-05-17T15:50:04.609Z,15.53
2019-05-17T15:52:31.620Z,15.47
2019-05-17T15:54:58.672Z,15.42
2019-05-17T15:57:25.699Z,15.51
2019-05-17T15:59:52.766Z,15.51
2019-05-17T16:02:19.823Z,15.52
2019-05-17T16:04:46.893Z,15.73
2019-05-17T16:07:13.982Z,15.64
2019-05-17T16:09:41.013Z,15.67
2019-05-17T16:12:08.067Z,15.62
2019-05-17T16:14:35.262Z,15.62
2019-05-17T16:17:02.330Z,15.65
2019-05-17T16:19:29.373Z,15.55
2019-05-17T16:21:56.460Z,15.56
2019-05-17T16:24:23.542Z,15.66
2019-05-17T16:26:50.567Z,15.56
2019-05-17T16:29:17.614Z,15.44
2019-05-17T16:31:44.706Z,15.35
2019-05-17T16:34:11.744Z,15.51
2019-05-17T16:36:38.805Z,15.44
2019-05-17T16:39:08.398Z,15.43
2019-05-17T16:41:35.277Z,15.45
2019-05-17T16:44:02.295Z,15.44
2019-05-17T16:46:29.355Z,15.64
2019-05-17T16:48:56.367Z,15.50
2019-05-17T16:51:23.398Z,15.59
2019-05-17T16:53:50.565Z,15.53
2019-05-17T16:56:17.607Z,15.54
2019-05-17T16:58:44.665Z,15.47
2019-05-17T17:01:11.741Z,15.47
2019-05-17T17:03:44.423Z,15.51
2019-05-17T17:06:10.314Z,15.64
2019-05-17T17:08:37.203Z,15.58
2019-05-17T17:11:04.234Z,15.54
2019-05-17T17:13:33.354Z,15.39
2019-05-17T17:16:00.340Z,15.51
2019-05-17T17:18:29.025Z,15.56
2019-05-17T17:20:56.072Z,15.62
2019-05-17T17:23:23.191Z,15.51
2019-05-17T17:25:50.207Z,15.41
2019-05-17T17:28:17.249Z,15.52
2019-05-17T17:30:44.316Z,15.48
2019-05-17T17:33:11.409Z,15.41
2019-05-17T17:35:38.435Z,15.42
2019-05-17T17:38:05.464Z,15.31
2019-05-17T17:40:32.509Z,15.38
2019-05-17T17:42:59.584Z,15.20
2019-05-17T17:45:27.611Z,15.25
2019-05-17T17:47:54.669Z,15.31
2019-05-17T17:50:21.851Z,15.16
2019-05-17T17:52:50.393Z,15.20
2019-05-17T17:55:17.658Z,15.29
2019-05-17T17:57:44.814Z,15.19
2019-05-17T18:00:12.286Z,15.12
2019-05-17T18:02:39.328Z,15.14
2019-05-17T18:05:06.355Z,15.13
2019-05-17T18:07:33.446Z,15.12
2019-05-17T18:10:00.544Z,15.07
2019-05-17T18:12:27.587Z,15.12
2019-05-17T18:14:54.801Z,15.13
2019-05-17T18:17:21.860Z,14.99
2019-05-17T18:19:48.871Z,15.07
2019-05-17T18:22:16.009Z,15.04
2019-05-17T18:24:43.066Z,15.08
2019-05-17T18:27:10.100Z,15.08
2019-05-17T18:29:37.137Z,15.07
2019-05-17T18:32:04.218Z,15.12
2019-05-17T18:34:31.246Z,15.18
2019-05-17T18:36:58.285Z,15.19
2019-05-17T18:39:25.354Z,15.08
2019-05-17T18:41:54.811Z,15.17
2019-05-17T18:44:27.958Z,15.34
2019-05-17T18:46:50.320Z,15.23
2019-05-17T18:49:17.362Z,15.27
2019-05-17T18:51:44.419Z,15.05
2019-05-17T18:54:13.281Z,15.07
2019-05-17T18:56:40.345Z,15.06
2019-05-17T18:59:07.414Z,15.09
2019-05-17T19:01:34.564Z,15.12
2019-05-17T19:04:01.855Z,15.09
2019-05-17T19:06:29.083Z,14.94
2019-05-17T19:08:56.141Z,14.86
2019-05-17T19:11:23.178Z,14.92
2019-05-17T19:13:50.221Z,14.92
2019-05-17T19:16:17.278Z,14.97
2019-05-17T19:18:44.331Z,14.98
2019-05-17T19:21:11.426Z,14.92
2019-05-17T19:23:38.467Z,14.85
2019-05-17T19:26:05.485Z,14.80
2019-05-17T19:28:32.523Z,14.79
2019-05-17T19:30:59.563Z,14.73
2019-05-17T19:33:26.628Z,14.81
2019-05-17T19:35:53.734Z,14.85
2019-05-17T19:38:20.838Z,14.92
2019-05-17T19:40:47.872Z,14.89
2019-05-17T19:43:14.934Z,14.86
2019-05-17T19:45:42.377Z,14.87
2019-05-17T19:48:09.494Z,14.89
2019-05-17T19:50:36.589Z,14.84
2019-05-17T19:53:12.908Z,14.87
2019-05-17T19:55:39.968Z,14.93
2019-05-17T19:58:25.255Z,14.95
2019-05-17T20:00:52.316Z,14.97
2019-05-17T20:03:25.323Z,14.91
2019-05-17T20:06:04.721Z,14.82
2019-05-17T20:08:31.840Z,14.65
2019-05-17T20:10:58.945Z,14.70
2019-05-17T20:13:26.014Z,14.69
2019-05-17T20:15:53.114Z,14.69
2019-05-17T20:18:20.211Z,14.74
2019-05-17T20:20:47.322Z,14.68
2019-05-17T20:23:14.455Z,14.69
2019-05-17T20:25:41.551Z,14.59
2019-05-17T20:28:08.659Z,14.48
2019-05-17T20:30:35.772Z,14.61
2019-05-17T20:33:02.850Z,14.49
2019-05-17T20:35:29.925Z,14.46
2019-05-17T20:37:57.080Z,14.41
2019-05-17T20:40:24.105Z,14.46
2019-05-17T20:42:51.288Z,14.44
2019-05-17T20:45:32.146Z,14.35
2019-05-17T20:47:47.790Z,14.35
2019-05-17T20:50:15.021Z,14.27
2019-05-17T20:52:42.106Z,14.25
2019-05-17T20:55:09.343Z,14.27
2019-05-17T20:57:36.519Z,14.31
2019-05-17T21:00:04.645Z,14.24
2019-05-17T21:02:31.714Z,14.25
2019-05-17T21:04:58.767Z,14.22
2019-05-17T21:07:25.825Z,14.11
2019-05-17T21:09:52.863Z,14.19
2019-05-17T21:12:19.925Z,14.24
2019-05-17T21:14:46.957Z,14.36
2019-05-17T21:17:14.007Z,14.22
2019-05-17T21:19:41.106Z,14.09
2019-05-17T21:22:08.147Z,14.10
2019-05-17T21:24:35.284Z,14.09
2019-05-17T21:27:02.334Z,14.20
2019-05-17T21:29:29.455Z,14.11
2019-05-17T21:31:56.534Z,14.16
2019-05-17T21:34:23.560Z,14.21
2019-05-17T21:36:50.583Z,14.27
2019-05-17T21:39:17.618Z,14.18
2019-05-17T21:41:44.647Z,14.28
2019-05-17T21:44:11.690Z,14.13
2019-05-17T21:46:38.707Z,14.11
2019-05-17T21:49:05.737Z,14.02
2019-05-17T21:51:32.804Z,14.12
2019-05-17T21:53:59.838Z,13.99
2019-05-17T21:56:26.907Z,14.02
2019-05-17T21:58:53.987Z,13.95
2019-05-17T22:01:24.471Z,14.03
2019-05-17T22:03:51.716Z,13.85
2019-05-17T22:06:19.084Z,13.94
2019-05-17T22:08:46.112Z,14.02
2019-05-17T22:11:13.168Z,13.97
2019-05-17T22:13:40.353Z,13.98
2019-05-17T22:16:18.995Z,13.98
2019-05-17T22:18:39.586Z,13.93
2019-05-17T22:21:06.638Z,13.94
2019-05-17T22:23:33.692Z,14.02
2019-05-17T22:26:00.761Z,14.01
2019-05-17T22:28:27.859Z,14.12
2019-05-17T22:30:54.926Z,13.93
2019-05-17T22:33:21.952Z,14.00
2019-05-17T22:35:49.217Z,13.91
2019-05-17T22:38:16.228Z,13.94
2019-05-17T22:40:43.477Z,13.95
2019-05-17T22:43:10.539Z,13.94
2019-05-17T22:45:37.608Z,13.91
2019-05-17T22:48:04.648Z,13.88
2019-05-17T22:50:31.822Z,13.86
2019-05-17T22:52:58.892Z,14.01
2019-05-17T22:55:25.938Z,13.93
2019-05-17T22:57:52.987Z,13.94
2019-05-17T23:00:20.148Z,13.92
2019-05-17T23:02:47.172Z,13.92
2019-05-17T23:05:14.252Z,14.01
2019-05-17T23:07:41.303Z,13.98
2019-05-17T23:10:08.560Z,13.88
2019-05-17T23:12:35.631Z,13.85
2019-05-17T23:15:02.957Z,13.88
2019-05-17T23:17:30.001Z,13.88
2019-05-17T23:20:00.037Z,13.85
2019-05-17T23:22:27.124Z,13.80
2019-05-17T23:24:54.271Z,13.77
2019-05-17T23:27:21.391Z,13.59
2019-05-17T23:29:48.439Z,13.67
2019-05-17T23:32:15.488Z,13.74
2019-05-17T23:34:42.518Z,13.68
2019-05-17T23:37:09.593Z,13.67
2019-05-17T23:39:36.667Z,13.63
2019-05-17T23:42:03.714Z,13.62
2019-05-17T23:44:30.794Z,13.55
2019-05-17T23:47:06.619Z,13.70
2019-05-17T23:49:26.797Z,13.55
2019-05-17T23:51:53.822Z,13.46
2019-05-17T23:54:20.928Z,13.53
2019-05-17T23:56:47.989Z,13.60
2019-05-17T23:59:14.999Z,13.52
